Time;durP1;ratioP1;P1;durP2;ratioP2;P2;SDS_P1;SDS_P2;PMS_P1;PMS_P2;Temp;Humidity;BMP_temperature;BMP_pressure;BME280_temperature;BME280_humidity;BME280_pressure;Samples;Min_cycle;Max_cycle;Signal;HPM_P1;HPM_P2
2021/08/06 00:00:31;;;;;;;8.70;7.90;;;15.30;99.90;;;;;;5081696;28;20365;-77
2021/08/06 00:02:57;;;;;;;9.13;8.32;;;15.40;99.90;;;;;;5063175;28;20388;-80
2021/08/06 00:05:23;;;;;;;8.47;7.67;;;15.40;99.90;;;;;;5079197;28;20416;-81
2021/08/06 00:07:48;;;;;;;8.40;7.60;;;15.40;99.90;;;;;;5079936;28;20368;-79
2021/08/06 00:10:14;;;;;;;8.50;7.60;;;15.30;99.90;;;;;;5077153;28;20814;-79
2021/08/06 00:12:40;;;;;;;8.88;7.97;;;15.40;99.90;;;;;;5080649;28;20466;-78
2021/08/06 00:15:06;;;;;;;8.63;7.68;;;15.30;99.90;;;;;;5063209;28;20418;-79
2021/08/06 00:17:32;;;;;;;8.02;7.38;;;15.30;99.90;;;;;;5071644;28;20374;-80
2021/08/06 00:19:57;;;;;;;9.25;8.35;;;15.40;99.90;;;;;;5071347;28;20756;-77
2021/08/06 00:22:23;;;;;;;8.83;7.97;;;15.40;99.90;;;;;;5071673;28;20402;-79
2021/08/06 00:24:49;;;;;;;8.77;7.82;;;15.30;99.90;;;;;;5071464;28;20374;-81
2021/08/06 00:27:14;;;;;;;9.40;8.50;;;15.30;99.90;;;;;;5071620;28;20470;-80
2021/08/06 00:29:40;;;;;;;10.32;9.43;;;15.20;99.90;;;;;;5071347;28;20462;-80
2021/08/06 00:32:06;;;;;;;10.10;9.20;;;15.20;99.90;;;;;;5071236;28;20366;-79
2021/08/06 00:34:31;;;;;;;10.40;9.50;;;15.20;99.90;;;;;;5053778;28;20435;-78
2021/08/06 00:36:57;;;;;;;9.93;9.13;;;15.20;99.90;;;;;;5071405;28;20379;-79
2021/08/06 00:39:22;;;;;;;11.83;10.70;;;15.30;99.90;;;;;;5053100;28;20413;-79
2021/08/06 00:41:48;;;;;;;10.35;9.45;;;15.30;99.90;;;;;;5071432;28;20396;-80
2021/08/06 00:44:13;;;;;;;10.07;9.10;;;15.30;99.90;;;;;;5071627;28;20370;-78
2021/08/06 00:46:40;;;;;;;9.55;8.75;;;15.40;99.90;;;;;;5071104;28;20378;-78
2021/08/06 00:49:05;;;;;;;9.57;8.77;;;15.40;99.90;;;;;;5070651;28;20416;-80
2021/08/06 00:51:31;;;;;;;9.90;8.90;;;15.40;99.90;;;;;;5071130;28;20463;-80
2021/08/06 00:53:58;;;;;;;12.40;9.10;;;15.30;99.90;;;;;;5070971;28;20443;-81
2021/08/06 00:56:23;;;;;;;9.50;8.70;;;15.40;99.90;;;;;;5071182;28;20464;-79
2021/08/06 00:58:49;;;;;;;9.47;8.67;;;15.40;99.90;;;;;;5070573;28;20398;-80
2021/08/06 01:01:14;;;;;;;10.10;9.30;;;15.40;99.90;;;;;;5053064;28;20891;-79
2021/08/06 01:03:49;;;;;;;10.03;9.07;;;15.40;99.90;;;;;;5069973;28;20369;-80
2021/08/06 01:06:21;;;;;;;10.63;9.73;;;15.30;99.90;;;;;;5071089;28;20453;-79
2021/08/06 01:08:57;;;;;;;9.88;9.07;;;15.40;99.90;;;;;;5070554;28;20434;-80
2021/08/06 01:11:26;;;;;;;11.07;8.65;;;15.40;99.90;;;;;;5052755;28;20378;-79
2021/08/06 01:13:56;;;;;;;8.40;7.60;;;15.30;99.90;;;;;;5070884;28;20393;-78
2021/08/06 01:16:31;;;;;;;9.07;8.27;;;15.30;99.90;;;;;;5070930;28;20400;-79
2021/08/06 01:18:59;;;;;;;8.98;8.18;;;15.30;99.90;;;;;;5070762;28;20384;-80
2021/08/06 01:21:28;;;;;;;8.63;7.93;;;15.30;99.90;;;;;;5070523;28;20390;-80
2021/08/06 01:23:59;;;;;;;8.93;8.10;;;15.40;99.90;;;;;;5052789;28;20390;-79
2021/08/06 01:26:25;;;;;;;8.50;7.80;;;15.30;99.90;;;;;;5070737;28;20389;-79
2021/08/06 01:28:51;;;;;;;9.30;8.48;;;15.40;99.90;;;;;;5070373;28;20424;-79
2021/08/06 01:31:24;;;;;;;8.80;8.00;;;15.40;99.90;;;;;;5070455;28;20377;-80
2021/08/06 01:33:49;;;;;;;8.85;7.95;;;15.30;99.90;;;;;;5052432;28;20405;-79
2021/08/06 01:36:15;;;;;;;9.50;8.43;;;15.30;99.90;;;;;;5070405;28;20382;-78
2021/08/06 01:38:40;;;;;;;8.97;8.13;;;15.40;99.90;;;;;;5070115;28;20382;-79
2021/08/06 01:41:15;;;;;;;8.27;7.57;;;15.30;99.90;;;;;;5070396;28;20393;-78
2021/08/06 01:43:46;;;;;;;9.13;8.13;;;15.30;99.90;;;;;;5070280;28;20441;-78
2021/08/06 01:46:33;;;;;;;9.00;8.15;;;15.30;99.90;;;;;;5070184;28;20402;-81
2021/08/06 01:49:22;;;;;;;8.88;8.18;;;15.30;99.90;;;;;;5069333;28;20370;-80
2021/08/06 01:51:54;;;;;;;9.23;8.35;;;15.30;99.90;;;;;;5054889;28;20391;-80
2021/08/06 01:54:22;;;;;;;9.77;8.88;;;15.30;99.90;;;;;;5070015;28;20891;-79
2021/08/06 01:56:50;;;;;;;8.88;8.05;;;15.30;99.90;;;;;;5070038;28;20385;-80
2021/08/06 01:59:17;;;;;;;9.30;8.40;;;15.30;99.90;;;;;;5069296;28;20374;-80
2021/08/06 02:01:43;;;;;;;9.07;8.27;;;15.30;99.90;;;;;;5069979;28;20603;-80
2021/08/06 02:04:09;;;;;;;8.93;8.23;;;15.20;99.90;;;;;;5070001;28;20412;-81
2021/08/06 02:06:35;;;;;;;9.17;8.47;;;15.20;99.90;;;;;;5070057;28;20480;-81
2021/08/06 02:09:01;;;;;;;9.23;8.43;;;15.20;99.90;;;;;;5069259;28;20378;-80
2021/08/06 02:11:27;;;;;;;10.27;9.27;;;15.10;99.90;;;;;;5051907;28;20435;-78
2021/08/06 02:13:53;;;;;;;9.63;8.93;;;15.10;99.90;;;;;;5069734;28;20516;-78
2021/08/06 02:16:22;;;;;;;9.30;8.60;;;15.10;99.90;;;;;;5069502;28;20526;-81
2021/08/06 02:18:49;;;;;;;9.40;8.60;;;15.10;99.90;;;;;;5069225;28;20905;-79
2021/08/06 02:21:20;;;;;;;10.20;9.18;;;15.10;99.90;;;;;;5069820;28;20386;-80
2021/08/06 02:23:49;;;;;;;9.80;8.90;;;15.10;99.90;;;;;;5069610;28;20435;-78
2021/08/06 02:26:17;;;;;;;9.30;8.40;;;15.00;99.90;;;;;;5069440;28;20370;-80
2021/08/06 02:28:44;;;;;;;9.68;8.88;;;15.00;99.90;;;;;;5051102;28;20806;-78
2021/08/06 02:31:11;;;;;;;9.23;8.32;;;15.00;99.90;;;;;;5069342;28;20868;-78
2021/08/06 02:33:38;;;;;;;10.30;9.30;;;15.10;99.90;;;;;;5069321;28;20876;-80
2021/08/06 02:36:04;;;;;;;9.55;8.65;;;15.00;99.90;;;;;;5069444;28;20790;-78
2021/08/06 02:38:30;;;;;;;9.30;8.50;;;15.00;99.90;;;;;;5068862;28;20393;-79
2021/08/06 02:40:56;;;;;;;10.20;9.30;;;15.00;99.90;;;;;;5069412;28;21025;-77
2021/08/06 02:43:21;;;;;;;9.95;9.15;;;14.90;99.90;;;;;;5069322;28;20382;-80
2021/08/06 02:45:48;;;;;;;9.52;8.73;;;15.00;99.90;;;;;;5069242;28;20714;-77
2021/08/06 02:48:14;;;;;;;10.50;9.52;;;15.00;99.90;;;;;;5068510;28;20776;-79
2021/08/06 02:50:41;;;;;;;9.98;9.05;;;15.00;99.90;;;;;;5068819;28;20468;-80
2021/08/06 02:53:06;;;;;;;9.80;9.05;;;14.90;99.90;;;;;;5069201;28;20875;-78
2021/08/06 02:55:32;;;;;;;9.70;8.90;;;14.90;99.90;;;;;;5068700;28;20405;-77
2021/08/06 02:57:57;;;;;;;10.67;9.77;;;14.90;99.90;;;;;;5068593;28;20425;-78
2021/08/06 03:00:23;;;;;;;9.98;9.18;;;14.90;99.90;;;;;;5068531;28;20374;-78
2021/08/06 03:02:48;;;;;;;9.50;8.60;;;14.90;99.90;;;;;;5068720;28;20948;-78
2021/08/06 03:05:14;;;;;;;10.10;9.10;;;14.90;99.90;;;;;;5068624;28;20378;-80
2021/08/06 03:07:39;;;;;;;9.50;8.70;;;14.80;99.90;;;;;;5068745;28;20370;-79
2021/08/06 03:10:06;;;;;;;10.03;9.03;;;14.80;99.90;;;;;;5068439;28;20374;-80
2021/08/06 03:12:31;;;;;;;10.27;9.38;;;14.80;99.90;;;;;;5068700;28;20389;-79
2021/08/06 03:14:57;;;;;;;9.77;8.97;;;14.80;99.90;;;;;;5068754;28;20378;-81
2021/08/06 03:17:23;;;;;;;10.57;9.67;;;14.70;99.90;;;;;;5069294;28;20935;-79
2021/08/06 03:19:50;;;;;;;10.85;9.90;;;14.70;99.90;;;;;;5068121;28;20374;-80
2021/08/06 03:22:16;;;;;;;11.00;10.00;;;14.70;99.90;;;;;;5050786;28;20409;-80
2021/08/06 03:24:41;;;;;;;11.38;10.23;;;14.60;99.90;;;;;;5068741;28;20375;-79
2021/08/06 03:27:07;;;;;;;11.50;10.40;;;14.60;99.90;;;;;;5067950;28;20871;-81
2021/08/06 03:29:32;;;;;;;11.35;10.25;;;14.50;99.90;;;;;;5068166;28;20386;-80
2021/08/06 03:31:58;;;;;;;10.20;9.40;;;14.50;99.90;;;;;;5068649;28;20412;-79
2021/08/06 03:34:24;;;;;;;10.52;9.63;;;14.40;99.90;;;;;;5068285;28;20867;-78
2021/08/06 03:36:49;;;;;;;11.20;10.30;;;14.40;99.90;;;;;;5068626;28;20382;-78
2021/08/06 03:39:15;;;;;;;11.20;10.30;;;14.40;99.90;;;;;;5068264;28;20406;-79
2021/08/06 03:41:40;;;;;;;15.00;10.27;;;14.30;99.90;;;;;;5068613;28;20964;-79
2021/08/06 03:44:06;;;;;;;13.07;9.87;;;14.30;99.90;;;;;;5050416;28;20858;-79
2021/08/06 03:46:32;;;;;;;14.38;9.85;;;14.30;99.90;;;;;;5068479;28;20529;-78
2021/08/06 03:48:57;;;;;;;11.50;9.83;;;14.20;99.90;;;;;;5068258;28;20479;-80
2021/08/06 03:51:23;;;;;;;10.53;9.57;;;14.20;99.90;;;;;;5068503;28;20369;-80
2021/08/06 03:53:48;;;;;;;13.13;9.77;;;14.10;99.90;;;;;;5068536;28;20439;-79
2021/08/06 03:56:14;;;;;;;11.37;9.37;;;14.10;99.90;;;;;;5068621;28;20389;-80
2021/08/06 03:58:40;;;;;;;10.23;9.23;;;14.10;99.90;;;;;;5049668;28;20436;-77
2021/08/06 04:01:05;;;;;;;11.47;10.30;;;14.10;99.90;;;;;;5068109;28;20866;-77
2021/08/06 04:03:31;;;;;;;11.30;10.18;;;14.10;99.90;;;;;;5068123;28;20369;-80
2021/08/06 04:05:56;;;;;;;11.33;10.33;;;14.10;99.90;;;;;;5067408;28;20427;-79
2021/08/06 04:08:22;;;;;;;10.85;9.90;;;14.00;99.90;;;;;;5066385;28;20435;-79
2021/08/06 04:10:47;;;;;;;14.60;11.23;;;14.00;99.90;;;;;;5050369;28;20460;-76
2021/08/06 04:13:13;;;;;;;11.40;10.30;;;14.00;99.90;;;;;;5068031;28;20483;-79
2021/08/06 04:15:39;;;;;;;12.60;10.43;;;14.00;99.90;;;;;;5067976;28;20725;-78
2021/08/06 04:18:04;;;;;;;13.17;11.23;;;14.00;99.90;;;;;;5067089;28;20389;-79
2021/08/06 04:20:30;;;;;;;19.27;10.95;;;14.00;99.90;;;;;;5050009;28;20397;-77
2021/08/06 04:22:55;;;;;;;27.73;12.63;;;14.00;99.90;;;;;;5068380;28;20467;-81
2021/08/06 04:25:21;;;;;;;25.15;11.43;;;13.90;99.90;;;;;;5068322;28;20410;-77
2021/08/06 04:27:47;;;;;;;11.70;10.20;;;14.00;99.90;;;;;;5068029;28;20474;-80
2021/08/06 04:30:13;;;;;;;10.57;9.60;;;14.00;99.90;;;;;;5067681;28;20732;-77
2021/08/06 04:32:38;;;;;;;10.70;9.73;;;14.00;99.90;;;;;;5068033;28;20423;-79
2021/08/06 04:35:05;;;;;;;13.10;11.93;;;14.00;99.90;;;;;;5068050;28;20369;-78
2021/08/06 04:37:30;;;;;;;17.33;12.27;;;14.00;99.90;;;;;;5075587;28;20383;-78
2021/08/06 04:39:56;;;;;;;18.52;10.98;;;14.10;99.90;;;;;;5076700;28;20368;-81
2021/08/06 04:42:21;;;;;;;16.83;10.50;;;14.10;99.90;;;;;;5085478;28;20394;-80
2021/08/06 04:44:48;;;;;;;17.23;9.55;;;14.10;99.90;;;;;;5081421;28;20382;-77
2021/08/06 04:47:13;;;;;;;13.13;9.80;;;14.20;99.90;;;;;;5071120;28;20436;-78
2021/08/06 04:49:39;;;;;;;13.63;9.43;;;14.30;99.90;;;;;;5070600;28;20378;-77
2021/08/06 04:52:05;;;;;;;11.67;8.43;;;14.30;99.90;;;;;;5071170;28;20366;-77
2021/08/06 04:54:31;;;;;;;11.05;9.02;;;14.40;99.90;;;;;;5076298;28;20764;-77
2021/08/06 04:56:56;;;;;;;9.40;8.37;;;14.60;99.90;;;;;;5081444;28;20464;-80
2021/08/06 04:59:22;;;;;;;13.18;8.55;;;14.70;99.90;;;;;;5080662;28;20386;-79
2021/08/06 05:01:47;;;;;;;10.90;8.80;;;14.70;99.90;;;;;;5079300;28;20464;-80
2021/08/06 05:04:13;;;;;;;12.52;8.65;;;14.80;99.90;;;;;;5087377;28;20433;-80
2021/08/06 05:06:39;;;;;;;9.10;8.20;;;14.80;99.90;;;;;;5091203;28;20422;-80
2021/08/06 05:09:04;;;;;;;12.20;8.63;;;14.90;99.90;;;;;;5090872;28;20381;-78
2021/08/06 05:11:31;;;;;;;18.73;8.95;;;15.00;99.90;;;;;;5090898;28;20380;-79
2021/08/06 05:13:56;;;;;;;12.05;8.88;;;15.00;99.90;;;;;;5084530;28;20373;-78
2021/08/06 05:16:22;;;;;;;11.05;8.68;;;15.00;99.90;;;;;;5090652;28;20376;-78
2021/08/06 05:18:48;;;;;;;9.90;8.63;;;15.00;99.90;;;;;;5078994;28;20810;-76
2021/08/06 05:21:13;;;;;;;10.85;8.32;;;15.10;99.90;;;;;;5061238;28;20401;-77
2021/08/06 05:23:39;;;;;;;11.13;8.47;;;15.10;99.90;;;;;;5050434;28;20416;-78
2021/08/06 05:26:05;;;;;;;12.20;8.53;;;15.00;99.90;;;;;;5068349;28;20899;-76
2021/08/06 05:28:31;;;;;;;9.15;7.90;;;15.10;99.90;;;;;;5068993;28;20385;-78
2021/08/06 05:30:56;;;;;;;8.97;7.60;;;15.10;99.90;;;;;;5069929;28;20373;-76
2021/08/06 05:33:22;;;;;;;79.10;13.63;;;15.30;99.90;;;;;;5070116;28;20486;-77
2021/08/06 05:35:48;;;;;;;20.73;9.27;;;15.30;99.90;;;;;;5070435;28;20465;-80
2021/08/06 05:38:14;;;;;;;16.05;7.70;;;15.40;99.90;;;;;;5070173;28;20386;-76
2021/08/06 05:40:42;;;;;;;15.95;8.02;;;15.50;99.90;;;;;;5070290;28;20385;-79
2021/08/06 05:43:07;;;;;;;8.85;7.32;;;15.50;99.90;;;;;;5069950;28;20467;-78
2021/08/06 05:45:33;;;;;;;12.20;8.05;;;15.70;99.90;;;;;;5070453;28;20401;-78
2021/08/06 05:47:58;;;;;;;9.63;7.53;;;15.80;99.90;;;;;;5069649;28;20374;-79
2021/08/06 05:50:27;;;;;;;11.70;7.87;;;15.90;99.90;;;;;;5069698;28;20904;-77
2021/08/06 05:52:53;;;;;;;9.23;7.07;;;16.00;99.90;;;;;;5069811;28;20743;-79
2021/08/06 05:55:19;;;;;;;8.07;7.38;;;16.10;99.90;;;;;;5070030;28;20378;-78
2021/08/06 05:57:46;;;;;;;35.97;11.40;;;16.10;99.90;;;;;;5069843;28;20447;-79
2021/08/06 06:00:14;;;;;;;16.55;10.98;;;16.30;99.90;;;;;;5069313;28;20460;-80
2021/08/06 06:02:39;;;;;;;15.45;13.95;;;16.30;99.90;;;;;;5069282;28;20764;-80
2021/08/06 06:05:06;;;;;;;15.90;14.07;;;16.50;99.90;;;;;;5069220;28;20424;-80
2021/08/06 06:07:32;;;;;;;13.38;11.95;;;16.60;99.90;;;;;;5068580;28;20882;-79
2021/08/06 06:09:58;;;;;;;14.60;13.38;;;16.90;99.90;;;;;;5051528;28;20386;-80
2021/08/06 06:12:24;;;;;;;15.07;13.60;;;17.10;99.90;;;;;;5069819;28;20410;-79
2021/08/06 06:14:50;;;;;;;16.55;15.15;;;17.30;99.90;;;;;;5059188;28;20395;-81
2021/08/06 06:17:16;;;;;;;18.63;14.90;;;17.60;99.90;;;;;;5090593;28;20467;-78
2021/08/06 06:19:44;;;;;;;14.18;12.82;;;17.80;99.90;;;;;;5089844;28;20372;-78
2021/08/06 06:22:10;;;;;;;16.90;13.23;;;17.90;99.90;;;;;;5089810;28;20762;-79
2021/08/06 06:24:36;;;;;;;16.02;14.35;;;18.10;99.90;;;;;;5084631;28;20378;-79
2021/08/06 06:27:02;;;;;;;15.93;14.47;;;18.20;99.90;;;;;;5087245;28;20459;-81
2021/08/06 06:29:28;;;;;;;14.93;13.50;;;18.30;99.90;;;;;;5087645;28;20392;-80
2021/08/06 06:31:53;;;;;;;13.82;12.63;;;18.40;99.90;;;;;;5087870;28;20373;-80
2021/08/06 06:34:19;;;;;;;14.00;12.73;;;18.50;99.90;;;;;;5088506;28;20862;-80
2021/08/06 06:36:45;;;;;;;14.75;13.35;;;18.60;99.90;;;;;;5070357;28;20392;-78
2021/08/06 06:39:11;;;;;;;15.17;13.67;;;18.80;99.90;;;;;;5088884;28;20406;-81
2021/08/06 06:41:36;;;;;;;14.88;13.38;;;18.80;99.90;;;;;;5088983;28;20507;-81
2021/08/06 06:44:02;;;;;;;16.30;12.73;;;19.00;99.90;;;;;;5088962;28;20455;-79
2021/08/06 06:46:27;;;;;;;16.33;13.05;;;19.10;99.90;;;;;;5089070;28;20368;-80
2021/08/06 06:48:53;;;;;;;58.63;15.27;;;19.20;99.90;;;;;;5073456;28;20394;-80
2021/08/06 06:51:18;;;;;;;13.13;11.82;;;19.30;99.90;;;;;;5068750;28;21001;-78
2021/08/06 06:53:46;;;;;;;19.37;11.63;;;19.40;99.90;;;;;;5068602;28;20386;-79
2021/08/06 06:56:11;;;;;;;16.73;10.30;;;19.60;99.90;;;;;;5069505;28;20382;-78
2021/08/06 06:58:38;;;;;;;10.25;8.70;;;20.00;99.90;;;;;;5068533;28;20397;-80
2021/08/06 07:01:04;;;;;;;8.30;7.50;;;20.50;99.90;;;;;;5050404;28;20752;-79
2021/08/06 07:03:30;;;;;;;8.27;6.50;;;21.10;99.90;;;;;;5068974;28;20519;-79
2021/08/06 07:05:55;;;;;;;6.18;5.53;;;21.70;99.90;;;;;;5070044;28;20465;-81
2021/08/06 07:08:21;;;;;;;5.70;5.10;;;22.30;99.90;;;;;;5069254;28;20433;-80
2021/08/06 07:10:47;;;;;;;7.37;5.33;;;22.60;99.90;;;;;;5069222;28;20917;-79
2021/08/06 07:13:12;;;;;;;5.82;4.80;;;22.80;99.90;;;;;;5069238;28;20457;-80
2021/08/06 07:15:38;;;;;;;4.50;4.10;;;23.00;99.90;;;;;;5050665;28;20382;-81
2021/08/06 07:18:03;;;;;;;26.33;6.22;;;23.30;99.90;;;;;;5069030;28;20378;-80
2021/08/06 07:20:29;;;;;;;41.97;7.03;;;23.50;99.90;;;;;;5052269;28;20471;-79
2021/08/06 07:22:57;;;;;;;6.33;4.40;;;23.70;99.90;;;;;;5069191;28;20990;-79
2021/08/06 07:25:23;;;;;;;6.78;4.80;;;23.50;99.90;;;;;;5067176;28;20466;-78
2021/08/06 07:27:49;;;;;;;4.93;4.30;;;23.30;99.90;;;;;;5070109;28;20835;-80
2021/08/06 07:30:16;;;;;;;4.83;4.33;;;23.40;99.90;;;;;;5068329;28;20374;-80
2021/08/06 07:32:42;;;;;;;30.60;7.25;;;23.60;99.90;;;;;;5068232;28;20427;-81
2021/08/06 07:35:08;;;;;;;5.20;4.70;;;23.70;99.90;;;;;;5069138;28;20367;-79
2021/08/06 07:37:34;;;;;;;5.50;5.00;;;23.80;99.90;;;;;;5068888;28;20461;-80
2021/08/06 07:39:59;;;;;;;6.10;4.67;;;23.70;99.90;;;;;;5068931;28;20947;-78
2021/08/06 07:42:25;;;;;;;5.90;5.30;;;23.60;99.90;;;;;;5070176;28;20402;-77
2021/08/06 07:44:51;;;;;;;6.73;5.40;;;23.60;99.90;;;;;;5071149;28;20428;-78
2021/08/06 07:47:16;;;;;;;8.43;5.00;;;23.70;99.90;;;;;;5069150;28;20394;-81
2021/08/06 07:49:42;;;;;;;5.65;4.35;;;24.00;99.90;;;;;;5069761;28;20386;-81
2021/08/06 07:52:12;;;;;;;7.77;4.83;;;24.00;99.90;;;;;;5069125;28;20459;-81
2021/08/06 07:54:38;;;;;;;17.57;5.20;;;23.90;99.90;;;;;;5051330;28;20827;-79
2021/08/06 07:57:04;;;;;;;6.25;4.60;;;23.90;99.90;;;;;;5068860;28;20449;-79
2021/08/06 07:59:30;;;;;;;5.38;4.43;;;24.00;99.90;;;;;;5068658;28;20391;-80
2021/08/06 08:01:56;;;;;;;12.93;4.37;;;24.20;99.90;;;;;;5068737;28;20401;-82
2021/08/06 08:04:21;;;;;;;34.10;6.90;;;24.30;99.90;;;;;;5068848;28;20468;-78
2021/08/06 08:06:47;;;;;;;4.03;3.60;;;24.50;99.90;;;;;;5069404;28;20382;-78
2021/08/06 08:09:12;;;;;;;9.10;4.20;;;24.30;99.90;;;;;;5069449;28;20439;-80
2021/08/06 08:11:38;;;;;;;4.10;3.70;;;24.20;99.90;;;;;;5068800;28;20381;-81
2021/08/06 08:14:04;;;;;;;5.40;3.60;;;24.30;99.90;;;;;;5054680;28;20476;-80
2021/08/06 08:16:30;;;;;;;3.92;2.92;;;24.40;99.90;;;;;;5072816;28;20759;-80
2021/08/06 08:18:55;;;;;;;4.80;3.20;;;24.50;99.90;;;;;;5072481;28;20359;-80
2021/08/06 08:21:22;;;;;;;75.83;10.00;;;24.50;99.90;;;;;;5072792;28;20742;-80
2021/08/06 08:23:47;;;;;;;6.13;3.50;;;24.40;99.90;;;;;;5054826;28;20384;-77
2021/08/06 08:26:13;;;;;;;18.77;4.68;;;24.60;99.90;;;;;;5073010;28;20457;-80
2021/08/06 08:28:38;;;;;;;3.97;3.57;;;24.80;99.90;;;;;;5073201;28;20382;-79
2021/08/06 08:31:04;;;;;;;4.70;3.25;;;24.60;99.90;;;;;;5073097;28;20473;-79
2021/08/06 08:33:30;;;;;;;6.68;3.25;;;24.60;99.90;;;;;;5073246;28;20872;-81
2021/08/06 08:35:55;;;;;;;11.97;4.20;;;24.50;99.90;;;;;;5072351;28;20370;-78
2021/08/06 08:38:21;;;;;;;20.70;4.72;;;24.60;99.90;;;;;;5054878;28;20362;-80
2021/08/06 08:40:47;;;;;;;15.90;3.93;;;24.70;99.90;;;;;;5072200;28;20973;-77
2021/08/06 08:43:13;;;;;;;4.78;3.72;;;24.90;99.90;;;;;;5072669;28;20408;-78
2021/08/06 08:45:42;;;;;;;13.47;4.80;;;25.00;99.90;;;;;;5074016;28;20386;-82
2021/08/06 08:48:09;;;;;;;11.50;4.88;;;24.90;99.90;;;;;;5075765;28;20385;-78
2021/08/06 08:50:35;;;;;;;25.20;5.90;;;25.00;99.90;;;;;;5074960;28;20378;-78
2021/08/06 08:53:02;;;;;;;5.28;4.20;;;25.00;99.90;;;;;;5072789;28;20370;-76
2021/08/06 08:55:27;;;;;;;7.32;4.18;;;25.20;99.90;;;;;;5072661;28;20412;-81
2021/08/06 08:57:53;;;;;;;17.10;5.27;;;25.40;99.90;;;;;;5071576;28;20480;-81
2021/08/06 09:00:18;;;;;;;33.72;6.63;;;25.40;99.90;;;;;;5072375;28;20374;-82
2021/08/06 09:02:44;;;;;;;9.00;4.27;;;25.50;99.90;;;;;;5072014;28;20729;-81
2021/08/06 09:05:16;;;;;;;6.43;3.87;;;25.70;99.90;;;;;;5071999;28;20374;-81
2021/08/06 09:07:43;;;;;;;5.13;4.20;;;25.60;99.90;;;;;;5071545;28;20732;-81
2021/08/06 09:10:29;;;;;;;5.27;3.00;;;25.60;99.90;;;;;;5071139;28;20390;-80
2021/08/06 09:13:03;;;;;;;4.57;3.03;;;25.60;99.90;;;;;;5072163;28;20374;-81
2021/08/06 09:15:47;;;;;;;5.97;2.80;;;25.80;99.90;;;;;;5053802;28;20396;-78
2021/08/06 09:18:43;;;;;;;4.82;3.20;;;25.60;99.90;;;;;;5089109;28;20606;-80
2021/08/06 09:21:14;;;;;;;22.67;4.23;;;25.80;99.90;;;;;;5080057;28;20383;-81
2021/08/06 09:23:50;;;;;;;3.30;3.00;;;25.90;99.90;;;;;;5098234;28;20453;-78
2021/08/06 09:26:29;;;;;;;52.45;5.82;;;25.90;99.90;;;;;;5097823;28;20387;-79
2021/08/06 09:29:07;;;;;;;46.63;6.60;;;26.10;99.90;;;;;;5098614;28;20455;-77
2021/08/06 09:31:42;;;;;;;40.55;5.88;;;26.30;99.90;;;;;;5099387;28;20854;-81
2021/08/06 09:34:35;;;;;;;3.80;2.80;;;26.20;99.90;;;;;;5100658;28;20370;-82
2021/08/06 09:37:15;;;;;;;4.75;3.05;;;26.00;99.90;;;;;;5099836;28;20391;-80
2021/08/06 09:39:50;;;;;;;19.92;4.88;;;25.90;99.90;;;;;;5100274;28;20386;-79
2021/08/06 09:42:20;;;;;;;5.88;3.20;;;25.90;99.90;;;;;;5100419;28;20449;-79
2021/08/06 09:44:56;;;;;;;4.82;3.08;;;25.80;99.90;;;;;;5096507;28;20429;-80
2021/08/06 09:47:23;;;;;;;7.95;3.78;;;25.80;99.90;;;;;;5102424;28;20372;-79
2021/08/06 09:49:51;;;;;;;4.20;3.70;;;25.80;99.80;;;;;;5081164;28;20412;-79
2021/08/06 09:52:17;;;;;;;3.83;3.20;;;25.90;99.80;;;;;;5099379;28;20390;-81
2021/08/06 09:54:49;;;;;;;6.28;3.60;;;26.00;99.90;;;;;;5101034;28;20431;-80
2021/08/06 09:57:15;;;;;;;10.00;3.45;;;26.00;99.90;;;;;;5080840;28;20728;-79
2021/08/06 09:59:41;;;;;;;3.38;2.92;;;26.10;98.90;;;;;;5080798;28;20390;-78
2021/08/06 10:02:22;;;;;;;4.35;3.03;;;25.80;98.30;;;;;;5098569;28;20467;-80
2021/08/06 10:04:58;;;;;;;4.22;2.70;;;25.80;99.10;;;;;;5098554;28;20372;-83
2021/08/06 10:07:28;;;;;;;4.75;3.00;;;25.80;98.10;;;;;;5098260;28;21022;-79
2021/08/06 10:09:55;;;;;;;6.77;2.90;;;26.10;99.00;;;;;;5098640;28;20377;-79
2021/08/06 10:12:22;;;;;;;5.20;3.30;;;26.30;98.70;;;;;;5097703;28;20868;-81
2021/08/06 10:14:47;;;;;;;10.60;3.50;;;26.40;97.20;;;;;;5095606;28;20365;-82
2021/08/06 10:17:13;;;;;;;7.35;3.30;;;26.30;98.10;;;;;;5071744;28;20384;-82
2021/08/06 10:19:39;;;;;;;6.60;3.10;;;26.10;97.90;;;;;;5086679;28;20391;-79
2021/08/06 10:22:07;;;;;;;7.60;3.22;;;26.20;98.60;;;;;;5069683;28;20492;-79
2021/08/06 10:24:33;;;;;;;11.07;3.08;;;26.20;97.40;;;;;;5076816;28;20364;-83
2021/08/06 10:27:00;;;;;;;21.25;3.88;;;26.10;98.00;;;;;;5090314;28;20380;-80
2021/08/06 10:29:26;;;;;;;7.38;3.08;;;26.00;97.60;;;;;;5072950;28;20467;-83
2021/08/06 10:32:15;;;;;;;12.27;3.53;;;25.90;96.60;;;;;;5091341;28;20814;-79
2021/08/06 10:35:04;;;;;;;4.17;2.77;;;25.70;98.20;;;;;;5076565;28;20380;-78
2021/08/06 10:37:50;;;;;;;8.17;2.87;;;25.80;98.20;;;;;;5058120;28;20485;-79
2021/08/06 10:40:35;;;;;;;14.88;3.58;;;26.00;97.80;;;;;;5070440;28;20485;-81
2021/08/06 10:43:09;;;;;;;3.72;2.47;;;26.20;97.10;;;;;;5070280;28;20903;-81
2021/08/06 10:45:47;;;;;;;6.85;3.33;;;26.40;95.60;;;;;;5069498;28;20377;-80
2021/08/06 10:48:31;;;;;;;9.10;3.50;;;26.40;99.90;;;;;;5070121;28;21018;-80
2021/08/06 10:51:14;;;;;;;3.97;2.45;;;;;;;;;;5070560;28;20864;-82
2021/08/06 10:53:41;;;;;;;18.77;4.47;;;;;;;;;;5052718;28;20485;-79
2021/08/06 10:56:19;;;;;;;4.03;2.67;;;26.70;95.30;;;;;;5070306;28;20428;-82
2021/08/06 10:58:51;;;;;;;9.45;2.63;;;26.70;96.00;;;;;;5051083;28;20795;-79
2021/08/06 11:01:33;;;;;;;3.38;2.53;;;;;;;;;;5068995;28;20457;-82
2021/08/06 11:04:05;;;;;;;4.90;2.65;;;;;;;;;;5050669;28;20740;-79
2021/08/06 11:06:35;;;;;;;4.63;2.65;;;;;;;;;;5051040;28;20721;-80
2021/08/06 11:09:01;;;;;;;3.37;2.53;;;;;;;;;;5070043;28;20424;-81
2021/08/06 11:11:46;;;;;;;86.53;10.95;;;;;;;;;;5069611;28;20473;-80
2021/08/06 11:14:13;;;;;;;9.57;2.63;;;;;;;;;;5085205;28;20492;-81
2021/08/06 11:16:58;;;;;;;34.38;5.97;;;;;;;;;;5089773;28;20379;-80
2021/08/06 11:19:38;;;;;;;9.30;2.80;;;;;;;;;;5088187;28;20368;-81
2021/08/06 11:22:07;;;;;;;24.70;4.18;;;;;;;;;;5090121;28;20404;-81
2021/08/06 11:24:44;;;;;;;7.13;3.10;;;;;;;;;;5090032;28;20380;-81
2021/08/06 11:27:11;;;;;;;9.52;2.70;;;;;;;;;;5090450;28;20391;-80
2021/08/06 11:29:39;;;;;;;30.35;4.20;;;;;;;;;;5089819;28;20426;-81
2021/08/06 11:32:06;;;;;;;18.42;3.28;;;;;;;;;;5090306;28;20854;-81
2021/08/06 11:34:51;;;;;;;3.20;2.55;;;;;;;;;;5090358;28;20368;-77
2021/08/06 11:37:17;;;;;;;77.28;8.38;;;;;;;;;;5072185;28;20388;-80
2021/08/06 11:40:03;;;;;;;4.53;2.10;;;;;;;;;;5090878;28;20380;-79
2021/08/06 11:42:29;;;;;;;23.60;4.40;;;;;;;;;;5089059;28;20461;-80
2021/08/06 11:44:56;;;;;;;42.80;5.43;;;;;;;;;;5089498;28;20796;-77
2021/08/06 11:47:38;;;;;;;3.70;2.20;;;;;;;;;;5090502;28;20432;-82
2021/08/06 11:50:05;;;;;;;4.40;2.50;;;;;;;;;;5094172;28;20357;-79
2021/08/06 11:52:42;;;;;;;4.50;2.60;;;;;;;;;;5075612;28;20372;-81
2021/08/06 11:55:09;;;;;;;3.08;2.60;;;;;;;;;;5093620;28;20369;-80
2021/08/06 11:57:45;;;;;;;2.83;2.55;;;;;;;;;;5075873;28;20437;-78
2021/08/06 12:00:15;;;;;;;12.18;3.20;;;;;;;;;;5094465;28;20431;-79
2021/08/06 12:02:41;;;;;;;4.68;2.72;;;;;;;;;;5093910;28;20396;-82
2021/08/06 12:05:23;;;;;;;6.30;2.50;;;;;;;;;;5093447;28;20797;-81
2021/08/06 12:07:49;;;;;;;3.30;2.38;;;;;;;;;;5093290;28;20787;-81
2021/08/06 12:10:15;;;;;;;6.95;2.75;;;;;;;;;;5076339;28;20376;-80
2021/08/06 12:12:41;;;;;;;15.60;3.25;;;;;;;;;;5075797;28;20734;-80
2021/08/06 12:15:21;;;;;;;6.10;2.60;;;;;;;;;;5075766;28;20870;-81
2021/08/06 12:17:47;;;;;;;4.13;2.38;;;;;;;;;;5092716;28;20368;-82
2021/08/06 12:20:13;;;;;;;4.70;2.60;;;;;;;;;;5092784;28;20381;-82
2021/08/06 12:22:42;;;;;;;16.60;3.53;;;;;;;;;;5074481;28;20403;-79
2021/08/06 12:25:12;;;;;;;140.97;15.67;;;;;;;;;;5092930;28;20376;-77
2021/08/06 12:27:38;;;;;;;8.85;2.72;;;;;;;;;;5074107;28;20364;-81
2021/08/06 12:30:37;;;;;;;3.60;2.50;;;;;;;;;;5085442;28;20860;-79
2021/08/06 12:33:03;;;;;;;2.97;2.60;;;;;;;;;;5048167;28;20377;-81
2021/08/06 12:35:29;;;;;;;4.20;2.33;;;;;;;;;;5070832;28;20770;-82
2021/08/06 12:37:55;;;;;;;26.50;4.40;;;;;;;;;;5072642;28;20378;-78
2021/08/06 12:40:21;;;;;;;4.53;2.70;;;;;;;;;;5072732;28;20712;-82
2021/08/06 12:42:47;;;;;;;17.77;4.15;;;;;;;;;;5071914;28;20914;-79
2021/08/06 12:45:19;;;;;;;6.50;2.90;;;;;;;;;;5079637;28;20385;-77
2021/08/06 12:47:50;;;;;;;3.00;2.70;;;;;;;;;;5075061;28;20395;-84
2021/08/06 12:50:24;;;;;;;2.58;2.38;;;;;;;;;;5098121;28;20363;-81
2021/08/06 12:53:01;;;;;;;3.08;2.33;;;;;;;;;;5098942;28;20502;-80
2021/08/06 12:55:27;;;;;;;2.50;2.30;;;;;;;;;;5099211;28;20415;-83
2021/08/06 12:57:58;;;;;;;11.52;2.88;;;;;;;;;;5093464;28;21173;-82
2021/08/06 13:00:28;;;;;;;6.33;2.70;;;;;;;;;;5066841;28;20427;-82
2021/08/06 13:03:10;;;;;;;4.53;2.33;;;;;;;;;;5056715;28;20412;-82